sensor_id;sensor_type;location;lat;lon;timestamp;P1;P2;P0
64315;PMS5003;50652;51.482;-0.580;2023-05-28T00:00:43;28;25;
64315;PMS5003;50652;51.482;-0.580;2023-05-28T00:03:10;23;22;
64315;PMS5003;50652;51.482;-0.580;2023-05-28T00:05:37;27;25;
64315;PMS5003;50652;51.482;-0.580;2023-05-28T00:08:04;28;25;
64315;PMS5003;50652;51.482;-0.580;2023-05-28T00:10:31;27;25;
64315;PMS5003;50652;51.482;-0.580;2023-05-28T00:12:58;27;24;
64315;PMS5003;50652;51.482;-0.580;2023-05-28T00:15:24;30;26;
64315;PMS5003;50652;51.482;-0.580;2023-05-28T00:17:51;25;22;
64315;PMS5003;50652;51.482;-0.580;2023-05-28T00:20:18;26;26;
64315;PMS5003;50652;51.482;-0.580;2023-05-28T00:22:45;23;23;
64315;PMS5003;50652;51.482;-0.580;2023-05-28T00:25:12;31;26;
64315;PMS5003;50652;51.482;-0.580;2023-05-28T00:27:39;27;25;
64315;PMS5003;50652;51.482;-0.580;2023-05-28T00:30:07;29;24;
64315;PMS5003;50652;51.482;-0.580;2023-05-28T00:32:34;26;22;
64315;PMS5003;50652;51.482;-0.580;2023-05-28T00:35:03;38;29;
64315;PMS5003;50652;51.482;-0.580;2023-05-28T00:37:30;28;28;
64315;PMS5003;50652;51.482;-0.580;2023-05-28T00:39:58;29;27;
64315;PMS5003;50652;51.482;-0.580;2023-05-28T00:42:25;35;29;
64315;PMS5003;50652;51.482;-0.580;2023-05-28T00:44:52;29;24;
64315;PMS5003;50652;51.482;-0.580;2023-05-28T00:47:18;30;26;
64315;PMS5003;50652;51.482;-0.580;2023-05-28T00:49:46;31;28;
64315;PMS5003;50652;51.482;-0.580;2023-05-28T00:52:13;24;22;
64315;PMS5003;50652;51.482;-0.580;2023-05-28T00:54:41;22;21;
64315;PMS5003;50652;51.482;-0.580;2023-05-28T00:57:08;28;27;
64315;PMS5003;50652;51.482;-0.580;2023-05-28T00:59:37;28;25;
64315;PMS5003;50652;51.482;-0.580;2023-05-28T01:02:05;31;22;
64315;PMS5003;50652;51.482;-0.580;2023-05-28T01:04:32;29;26;
64315;PMS5003;50652;51.482;-0.580;2023-05-28T01:07:00;22;21;
64315;PMS5003;50652;51.482;-0.580;2023-05-28T01:09:27;34;24;
64315;PMS5003;50652;51.482;-0.580;2023-05-28T01:11:55;25;23;
64315;PMS5003;50652;51.482;-0.580;2023-05-28T01:14:23;27;22;
64315;PMS5003;50652;51.482;-0.580;2023-05-28T01:16:51;27;24;
64315;PMS5003;50652;51.482;-0.580;2023-05-28T01:19:22;24;21;
64315;PMS5003;50652;51.482;-0.580;2023-05-28T01:21:50;28;26;
64315;PMS5003;50652;51.482;-0.580;2023-05-28T01:24:24;26;26;
64315;PMS5003;50652;51.482;-0.580;2023-05-28T01:26:52;26;26;
64315;PMS5003;50652;51.482;-0.580;2023-05-28T01:29:20;20;20;
64315;PMS5003;50652;51.482;-0.580;2023-05-28T01:31:47;26;26;
64315;PMS5003;50652;51.482;-0.580;2023-05-28T01:34:14;27;24;
64315;PMS5003;50652;51.482;-0.580;2023-05-28T01:36:43;25;22;
64315;PMS5003;50652;51.482;-0.580;2023-05-28T01:39:15;23;22;
64315;PMS5003;50652;51.482;-0.580;2023-05-28T01:41:45;29;26;
64315;PMS5003;50652;51.482;-0.580;2023-05-28T01:44:14;26;22;
64315;PMS5003;50652;51.482;-0.580;2023-05-28T01:46:43;31;27;
64315;PMS5003;50652;51.482;-0.580;2023-05-28T01:49:12;25;23;
64315;PMS5003;50652;51.482;-0.580;2023-05-28T01:51:39;28;26;
64315;PMS5003;50652;51.482;-0.580;2023-05-28T01:54:06;22;22;
64315;PMS5003;50652;51.482;-0.580;2023-05-28T01:56:34;28;25;
64315;PMS5003;50652;51.482;-0.580;2023-05-28T01:59:03;34;28;
64315;PMS5003;50652;51.482;-0.580;2023-05-28T02:01:31;28;25;
64315;PMS5003;50652;51.482;-0.580;2023-05-28T02:03:59;26;24;
64315;PMS5003;50652;51.482;-0.580;2023-05-28T02:06:27;30;24;
64315;PMS5003;50652;51.482;-0.580;2023-05-28T02:08:56;28;24;
64315;PMS5003;50652;51.482;-0.580;2023-05-28T02:11:23;26;25;
64315;PMS5003;50652;51.482;-0.580;2023-05-28T02:13:51;24;23;
64315;PMS5003;50652;51.482;-0.580;2023-05-28T02:16:18;28;24;
64315;PMS5003;50652;51.482;-0.580;2023-05-28T02:18:46;28;22;
64315;PMS5003;50652;51.482;-0.580;2023-05-28T02:21:14;27;25;
64315;PMS5003;50652;51.482;-0.580;2023-05-28T02:23:42;23;21;
64315;PMS5003;50652;51.482;-0.580;2023-05-28T02:26:10;26;25;
64315;PMS5003;50652;51.482;-0.580;2023-05-28T02:28:38;26;26;
64315;PMS5003;50652;51.482;-0.580;2023-05-28T02:31:06;32;26;
64315;PMS5003;50652;51.482;-0.580;2023-05-28T02:33:33;28;28;
64315;PMS5003;50652;51.482;-0.580;2023-05-28T02:36:03;28;26;
64315;PMS5003;50652;51.482;-0.580;2023-05-28T02:38:31;35;27;
64315;PMS5003;50652;51.482;-0.580;2023-05-28T02:40:58;32;26;
64315;PMS5003;50652;51.482;-0.580;2023-05-28T02:43:25;27;26;
64315;PMS5003;50652;51.482;-0.580;2023-05-28T02:45:52;29;28;
64315;PMS5003;50652;51.482;-0.580;2023-05-28T02:48:19;25;22;
64315;PMS5003;50652;51.482;-0.580;2023-05-28T02:50:47;26;23;
64315;PMS5003;50652;51.482;-0.580;2023-05-28T02:53:17;27;24;
64315;PMS5003;50652;51.482;-0.580;2023-05-28T02:55:46;28;25;
64315;PMS5003;50652;51.482;-0.580;2023-05-28T02:58:13;27;25;
64315;PMS5003;50652;51.482;-0.580;2023-05-28T03:00:41;26;20;
64315;PMS5003;50652;51.482;-0.580;2023-05-28T03:03:09;23;23;
64315;PMS5003;50652;51.482;-0.580;2023-05-28T03:05:36;21;19;
64315;PMS5003;50652;51.482;-0.580;2023-05-28T03:08:04;25;24;
64315;PMS5003;50652;51.482;-0.580;2023-05-28T03:10:31;31;28;
64315;PMS5003;50652;51.482;-0.580;2023-05-28T03:12:58;31;27;
64315;PMS5003;50652;51.482;-0.580;2023-05-28T03:15:25;27;25;
64315;PMS5003;50652;51.482;-0.580;2023-05-28T03:17:52;38;31;
64315;PMS5003;50652;51.482;-0.580;2023-05-28T03:20:19;24;24;
64315;PMS5003;50652;51.482;-0.580;2023-05-28T03:22:47;26;24;
64315;PMS5003;50652;51.482;-0.580;2023-05-28T03:25:15;24;21;
64315;PMS5003;50652;51.482;-0.580;2023-05-28T03:27:42;28;25;
64315;PMS5003;50652;51.482;-0.580;2023-05-28T03:30:09;33;26;
64315;PMS5003;50652;51.482;-0.580;2023-05-28T03:32:37;23;22;
64315;PMS5003;50652;51.482;-0.580;2023-05-28T03:35:05;32;29;
64315;PMS5003;50652;51.482;-0.580;2023-05-28T03:37:33;24;20;
64315;PMS5003;50652;51.482;-0.580;2023-05-28T03:40:00;35;31;
64315;PMS5003;50652;51.482;-0.580;2023-05-28T03:42:27;23;23;
64315;PMS5003;50652;51.482;-0.580;2023-05-28T03:44:54;30;28;
64315;PMS5003;50652;51.482;-0.580;2023-05-28T03:47:21;26;25;
64315;PMS5003;50652;51.482;-0.580;2023-05-28T03:49:48;30;26;
64315;PMS5003;50652;51.482;-0.580;2023-05-28T03:52:15;30;27;
64315;PMS5003;50652;51.482;-0.580;2023-05-28T03:54:43;35;28;
64315;PMS5003;50652;51.482;-0.580;2023-05-28T03:57:10;35;30;
64315;PMS5003;50652;51.482;-0.580;2023-05-28T03:59:37;22;20;
64315;PMS5003;50652;51.482;-0.580;2023-05-28T04:02:04;30;26;
64315;PMS5003;50652;51.482;-0.580;2023-05-28T04:04:32;28;27;
64315;PMS5003;50652;51.482;-0.580;2023-05-28T04:06:59;24;22;
64315;PMS5003;50652;51.482;-0.580;2023-05-28T04:09:27;24;24;
64315;PMS5003;50652;51.482;-0.580;2023-05-28T04:11:55;30;27;
64315;PMS5003;50652;51.482;-0.580;2023-05-28T04:14:22;30;22;
64315;PMS5003;50652;51.482;-0.580;2023-05-28T04:16:49;26;24;
64315;PMS5003;50652;51.482;-0.580;2023-05-28T04:19:16;27;23;
64315;PMS5003;50652;51.482;-0.580;2023-05-28T04:21:44;24;22;
64315;PMS5003;50652;51.482;-0.580;2023-05-28T04:24:11;26;25;
64315;PMS5003;50652;51.482;-0.580;2023-05-28T04:26:38;26;24;
64315;PMS5003;50652;51.482;-0.580;2023-05-28T04:29:06;22;21;
64315;PMS5003;50652;51.482;-0.580;2023-05-28T04:31:33;29;28;
64315;PMS5003;50652;51.482;-0.580;2023-05-28T04:34:00;28;24;
64315;PMS5003;50652;51.482;-0.580;2023-05-28T04:36:27;25;21;
64315;PMS5003;50652;51.482;-0.580;2023-05-28T04:38:54;26;24;
64315;PMS5003;50652;51.482;-0.580;2023-05-28T04:41:21;33;26;
64315;PMS5003;50652;51.482;-0.580;2023-05-28T04:43:49;24;22;
64315;PMS5003;50652;51.482;-0.580;2023-05-28T04:46:16;25;24;
64315;PMS5003;50652;51.482;-0.580;2023-05-28T04:48:44;24;23;
64315;PMS5003;50652;51.482;-0.580;2023-05-28T04:51:11;30;25;
64315;PMS5003;50652;51.482;-0.580;2023-05-28T04:53:38;21;21;
64315;PMS5003;50652;51.482;-0.580;2023-05-28T04:56:06;28;22;
64315;PMS5003;50652;51.482;-0.580;2023-05-28T04:58:33;28;24;
64315;PMS5003;50652;51.482;-0.580;2023-05-28T05:01:01;27;25;
64315;PMS5003;50652;51.482;-0.580;2023-05-28T05:03:29;29;26;
64315;PMS5003;50652;51.482;-0.580;2023-05-28T05:05:57;28;26;
64315;PMS5003;50652;51.482;-0.580;2023-05-28T05:08:24;33;29;
64315;PMS5003;50652;51.482;-0.580;2023-05-28T05:10:52;32;29;
64315;PMS5003;50652;51.482;-0.580;2023-05-28T05:13:19;29;27;
64315;PMS5003;50652;51.482;-0.580;2023-05-28T05:15:51;30;29;
64315;PMS5003;50652;51.482;-0.580;2023-05-28T05:18:18;29;26;
64315;PMS5003;50652;51.482;-0.580;2023-05-28T05:20:45;26;23;
64315;PMS5003;50652;51.482;-0.580;2023-05-28T05:23:12;27;25;
64315;PMS5003;50652;51.482;-0.580;2023-05-28T05:25:39;26;25;
64315;PMS5003;50652;51.482;-0.580;2023-05-28T05:28:07;34;30;
64315;PMS5003;50652;51.482;-0.580;2023-05-28T05:30:35;29;25;
64315;PMS5003;50652;51.482;-0.580;2023-05-28T05:33:02;25;21;
64315;PMS5003;50652;51.482;-0.580;2023-05-28T05:35:30;28;25;
64315;PMS5003;50652;51.482;-0.580;2023-05-28T05:37:56;22;20;
64315;PMS5003;50652;51.482;-0.580;2023-05-28T05:40:23;27;25;
64315;PMS5003;50652;51.482;-0.580;2023-05-28T05:42:51;27;21;
64315;PMS5003;50652;51.482;-0.580;2023-05-28T05:45:18;24;22;
64315;PMS5003;50652;51.482;-0.580;2023-05-28T05:47:45;28;24;
64315;PMS5003;50652;51.482;-0.580;2023-05-28T05:50:13;23;21;
64315;PMS5003;50652;51.482;-0.580;2023-05-28T05:52:40;23;19;
64315;PMS5003;50652;51.482;-0.580;2023-05-28T05:55:07;21;20;
64315;PMS5003;50652;51.482;-0.580;2023-05-28T05:57:35;17;17;
64315;PMS5003;50652;51.482;-0.580;2023-05-28T06:00:03;24;21;
64315;PMS5003;50652;51.482;-0.580;2023-05-28T06:02:31;19;17;
64315;PMS5003;50652;51.482;-0.580;2023-05-28T06:04:59;18;16;
64315;PMS5003;50652;51.482;-0.580;2023-05-28T06:07:26;20;19;
64315;PMS5003;50652;51.482;-0.580;2023-05-28T06:09:53;15;15;
64315;PMS5003;50652;51.482;-0.580;2023-05-28T06:12:20;20;17;
64315;PMS5003;50652;51.482;-0.580;2023-05-28T06:14:48;25;22;
64315;PMS5003;50652;51.482;-0.580;2023-05-28T06:17:15;24;21;
64315;PMS5003;50652;51.482;-0.580;2023-05-28T06:19:42;27;21;
64315;PMS5003;50652;51.482;-0.580;2023-05-28T06:22:09;20;20;
64315;PMS5003;50652;51.482;-0.580;2023-05-28T06:24:37;20;19;
64315;PMS5003;50652;51.482;-0.580;2023-05-28T06:27:04;21;17;
64315;PMS5003;50652;51.482;-0.580;2023-05-28T06:29:31;22;19;
64315;PMS5003;50652;51.482;-0.580;2023-05-28T06:31:59;20;20;
64315;PMS5003;50652;51.482;-0.580;2023-05-28T06:34:26;18;16;
64315;PMS5003;50652;51.482;-0.580;2023-05-28T06:36:53;17;16;
64315;PMS5003;50652;51.482;-0.580;2023-05-28T06:39:20;15;15;
64315;PMS5003;50652;51.482;-0.580;2023-05-28T06:41:48;22;18;
64315;PMS5003;50652;51.482;-0.580;2023-05-28T06:44:15;14;14;
64315;PMS5003;50652;51.482;-0.580;2023-05-28T06:46:42;21;18;
64315;PMS5003;50652;51.482;-0.580;2023-05-28T06:49:09;16;13;
64315;PMS5003;50652;51.482;-0.580;2023-05-28T06:51:37;16;13;
64315;PMS5003;50652;51.482;-0.580;2023-05-28T06:54:04;16;13;
64315;PMS5003;50652;51.482;-0.580;2023-05-28T06:56:32;14;12;
64315;PMS5003;50652;51.482;-0.580;2023-05-28T06:58:59;11;11;
64315;PMS5003;50652;51.482;-0.580;2023-05-28T07:01:26;14;13;
64315;PMS5003;50652;51.482;-0.580;2023-05-28T07:03:53;10;10;
64315;PMS5003;50652;51.482;-0.580;2023-05-28T07:06:20;14;12;
64315;PMS5003;50652;51.482;-0.580;2023-05-28T07:08:47;17;11;
64315;PMS5003;50652;51.482;-0.580;2023-05-28T07:11:14;8;8;
64315;PMS5003;50652;51.482;-0.580;2023-05-28T07:13:41;8;8;
64315;PMS5003;50652;51.482;-0.580;2023-05-28T07:16:10;11;8;
64315;PMS5003;50652;51.482;-0.580;2023-05-28T07:18:37;13;10;
64315;PMS5003;50652;51.482;-0.580;2023-05-28T07:21:05;9;9;
64315;PMS5003;50652;51.482;-0.580;2023-05-28T07:23:32;9;7;
64315;PMS5003;50652;51.482;-0.580;2023-05-28T07:25:59;9;8;
64315;PMS5003;50652;51.482;-0.580;2023-05-28T07:28:26;11;7;
64315;PMS5003;50652;51.482;-0.580;2023-05-28T07:30:53;8;8;
64315;PMS5003;50652;51.482;-0.580;2023-05-28T07:33:20;8;7;
64315;PMS5003;50652;51.482;-0.580;2023-05-28T07:35:48;8;6;
64315;PMS5003;50652;51.482;-0.580;2023-05-28T07:38:15;12;11;
64315;PMS5003;50652;51.482;-0.580;2023-05-28T07:40:42;8;7;
64315;PMS5003;50652;51.482;-0.580;2023-05-28T07:43:10;9;7;
64315;PMS5003;50652;51.482;-0.580;2023-05-28T07:45:37;15;11;
64315;PMS5003;50652;51.482;-0.580;2023-05-28T07:48:04;12;9;
64315;PMS5003;50652;51.482;-0.580;2023-05-28T07:50:31;5;5;
64315;PMS5003;50652;51.482;-0.580;2023-05-28T07:52:59;8;7;
64315;PMS5003;50652;51.482;-0.580;2023-05-28T07:55:27;10;7;
64315;PMS5003;50652;51.482;-0.580;2023-05-28T07:57:54;9;6;
64315;PMS5003;50652;51.482;-0.580;2023-05-28T08:00:21;11;8;
64315;PMS5003;50652;51.482;-0.580;2023-05-28T08:02:48;11;8;
64315;PMS5003;50652;51.482;-0.580;2023-05-28T08:05:15;11;9;
64315;PMS5003;50652;51.482;-0.580;2023-05-28T08:07:42;8;7;
64315;PMS5003;50652;51.482;-0.580;2023-05-28T08:10:09;10;10;
64315;PMS5003;50652;51.482;-0.580;2023-05-28T08:12:36;11;9;
64315;PMS5003;50652;51.482;-0.580;2023-05-28T08:15:04;11;9;
64315;PMS5003;50652;51.482;-0.580;2023-05-28T08:17:32;15;10;
64315;PMS5003;50652;51.482;-0.580;2023-05-28T08:19:59;12;11;
64315;PMS5003;50652;51.482;-0.580;2023-05-28T08:22:26;15;12;
64315;PMS5003;50652;51.482;-0.580;2023-05-28T08:24:54;11;10;
64315;PMS5003;50652;51.482;-0.580;2023-05-28T08:27:21;11;11;
64315;PMS5003;50652;51.482;-0.580;2023-05-28T08:29:48;13;11;
64315;PMS5003;50652;51.482;-0.580;2023-05-28T08:32:15;14;11;
64315;PMS5003;50652;51.482;-0.580;2023-05-28T08:34:42;14;13;
64315;PMS5003;50652;51.482;-0.580;2023-05-28T08:37:14;13;13;
64315;PMS5003;50652;51.482;-0.580;2023-05-28T08:39:42;10;10;
64315;PMS5003;50652;51.482;-0.580;2023-05-28T08:42:10;15;12;
64315;PMS5003;50652;51.482;-0.580;2023-05-28T08:44:36;15;13;
64315;PMS5003;50652;51.482;-0.580;2023-05-28T08:47:04;20;14;
64315;PMS5003;50652;51.482;-0.580;2023-05-28T08:49:32;13;11;
64315;PMS5003;50652;51.482;-0.580;2023-05-28T08:52:04;13;13;
64315;PMS5003;50652;51.482;-0.580;2023-05-28T08:54:34;15;13;
64315;PMS5003;50652;51.482;-0.580;2023-05-28T08:57:02;14;13;
64315;PMS5003;50652;51.482;-0.580;2023-05-28T08:59:30;17;15;
64315;PMS5003;50652;51.482;-0.580;2023-05-28T09:01:58;14;14;
64315;PMS5003;50652;51.482;-0.580;2023-05-28T09:04:25;12;10;
64315;PMS5003;50652;51.482;-0.580;2023-05-28T09:06:52;15;14;
64315;PMS5003;50652;51.482;-0.580;2023-05-28T09:09:19;14;13;
64315;PMS5003;50652;51.482;-0.580;2023-05-28T09:11:47;11;11;
64315;PMS5003;50652;51.482;-0.580;2023-05-28T09:14:16;14;13;
64315;PMS5003;50652;51.482;-0.580;2023-05-28T09:16:45;14;14;
64315;PMS5003;50652;51.482;-0.580;2023-05-28T09:19:14;19;17;
64315;PMS5003;50652;51.482;-0.580;2023-05-28T09:21:51;18;15;
64315;PMS5003;50652;51.482;-0.580;2023-05-28T09:24:18;19;16;
64315;PMS5003;50652;51.482;-0.580;2023-05-28T09:26:45;19;19;
64315;PMS5003;50652;51.482;-0.580;2023-05-28T09:29:12;26;16;
64315;PMS5003;50652;51.482;-0.580;2023-05-28T09:31:40;15;13;
64315;PMS5003;50652;51.482;-0.580;2023-05-28T09:34:07;22;18;
64315;PMS5003;50652;51.482;-0.580;2023-05-28T09:36:35;18;16;
64315;PMS5003;50652;51.482;-0.580;2023-05-28T09:39:05;22;20;
64315;PMS5003;50652;51.482;-0.580;2023-05-28T09:41:32;19;17;
64315;PMS5003;50652;51.482;-0.580;2023-05-28T09:44:00;24;22;
64315;PMS5003;50652;51.482;-0.580;2023-05-28T09:46:28;19;18;
64315;PMS5003;50652;51.482;-0.580;2023-05-28T09:48:55;21;16;
64315;PMS5003;50652;51.482;-0.580;2023-05-28T09:51:24;21;14;
64315;PMS5003;50652;51.482;-0.580;2023-05-28T09:53:55;17;16;
64315;PMS5003;50652;51.482;-0.580;2023-05-28T09:56:24;21;18;
64315;PMS5003;50652;51.482;-0.580;2023-05-28T09:58:56;18;16;
64315;PMS5003;50652;51.482;-0.580;2023-05-28T10:01:24;20;20;
64315;PMS5003;50652;51.482;-0.580;2023-05-28T10:03:56;18;18;
64315;PMS5003;50652;51.482;-0.580;2023-05-28T10:06:30;18;15;
64315;PMS5003;50652;51.482;-0.580;2023-05-28T10:09:00;19;13;
64315;PMS5003;50652;51.482;-0.580;2023-05-28T10:11:29;15;13;
64315;PMS5003;50652;51.482;-0.580;2023-05-28T10:14:01;20;19;
64315;PMS5003;50652;51.482;-0.580;2023-05-28T10:16:31;20;17;
64315;PMS5003;50652;51.482;-0.580;2023-05-28T10:18:59;18;15;
64315;PMS5003;50652;51.482;-0.580;2023-05-28T10:21:27;21;18;
64315;PMS5003;50652;51.482;-0.580;2023-05-28T10:23:54;19;17;
64315;PMS5003;50652;51.482;-0.580;2023-05-28T10:26:23;17;15;
64315;PMS5003;50652;51.482;-0.580;2023-05-28T10:28:53;22;19;
64315;PMS5003;50652;51.482;-0.580;2023-05-28T10:31:21;14;13;
64315;PMS5003;50652;51.482;-0.580;2023-05-28T10:33:49;19;15;
64315;PMS5003;50652;51.482;-0.580;2023-05-28T10:36:16;18;17;
64315;PMS5003;50652;51.482;-0.580;2023-05-28T10:38:44;13;12;
64315;PMS5003;50652;51.482;-0.580;2023-05-28T10:41:22;19;17;
64315;PMS5003;50652;51.482;-0.580;2023-05-28T10:43:56;15;15;
64315;PMS5003;50652;51.482;-0.580;2023-05-28T10:46:35;13;11;
64315;PMS5003;50652;51.482;-0.580;2023-05-28T10:49:08;15;13;
64315;PMS5003;50652;51.482;-0.580;2023-05-28T10:51:46;13;13;
64315;PMS5003;50652;51.482;-0.580;2023-05-28T10:54:23;17;13;
64315;PMS5003;50652;51.482;-0.580;2023-05-28T10:57:06;18;14;
64315;PMS5003;50652;51.482;-0.580;2023-05-28T10:59:36;19;14;
64315;PMS5003;50652;51.482;-0.580;2023-05-28T11:02:05;15;11;
64315;PMS5003;50652;51.482;-0.580;2023-05-28T11:04:34;19;16;
64315;PMS5003;50652;51.482;-0.580;2023-05-28T11:07:02;15;13;
64315;PMS5003;50652;51.482;-0.580;2023-05-28T11:09:30;13;11;
64315;PMS5003;50652;51.482;-0.580;2023-05-28T11:11:58;15;15;
64315;PMS5003;50652;51.482;-0.580;2023-05-28T11:14:28;16;14;
64315;PMS5003;50652;51.482;-0.580;2023-05-28T11:16:59;12;12;
64315;PMS5003;50652;51.482;-0.580;2023-05-28T11:19:27;16;11;
64315;PMS5003;50652;51.482;-0.580;2023-05-28T11:21:54;13;12;
64315;PMS5003;50652;51.482;-0.580;2023-05-28T11:24:22;14;11;
64315;PMS5003;50652;51.482;-0.580;2023-05-28T11:26:51;16;13;
64315;PMS5003;50652;51.482;-0.580;2023-05-28T11:29:18;11;10;
64315;PMS5003;50652;51.482;-0.580;2023-05-28T11:31:45;11;8;
64315;PMS5003;50652;51.482;-0.580;2023-05-28T11:34:13;10;8;
64315;PMS5003;50652;51.482;-0.580;2023-05-28T11:36:40;7;7;
64315;PMS5003;50652;51.482;-0.580;2023-05-28T11:39:08;10;10;
64315;PMS5003;50652;51.482;-0.580;2023-05-28T11:41:37;7;6;
64315;PMS5003;50652;51.482;-0.580;2023-05-28T11:44:17;11;10;
64315;PMS5003;50652;51.482;-0.580;2023-05-28T11:46:45;11;8;
64315;PMS5003;50652;51.482;-0.580;2023-05-28T11:49:16;9;8;
64315;PMS5003;50652;51.482;-0.580;2023-05-28T11:51:43;16;11;
64315;PMS5003;50652;51.482;-0.580;2023-05-28T11:54:11;13;10;
64315;PMS5003;50652;51.482;-0.580;2023-05-28T11:56:38;13;11;
64315;PMS5003;50652;51.482;-0.580;2023-05-28T11:59:06;11;10;
64315;PMS5003;50652;51.482;-0.580;2023-05-28T12:01:33;11;7;
64315;PMS5003;50652;51.482;-0.580;2023-05-28T12:04:04;10;9;
64315;PMS5003;50652;51.482;-0.580;2023-05-28T12:06:31;13;9;
64315;PMS5003;50652;51.482;-0.580;2023-05-28T12:09:03;11;11;
64315;PMS5003;50652;51.482;-0.580;2023-05-28T12:11:31;9;9;
64315;PMS5003;50652;51.482;-0.580;2023-05-28T12:14:07;12;11;
64315;PMS5003;50652;51.482;-0.580;2023-05-28T12:16:44;10;10;
64315;PMS5003;50652;51.482;-0.580;2023-05-28T12:19:12;11;10;
64315;PMS5003;50652;51.482;-0.580;2023-05-28T12:21:39;12;10;
64315;PMS5003;50652;51.482;-0.580;2023-05-28T12:24:11;10;10;
64315;PMS5003;50652;51.482;-0.580;2023-05-28T12:26:39;7;7;
64315;PMS5003;50652;51.482;-0.580;2023-05-28T12:29:06;12;10;
64315;PMS5003;50652;51.482;-0.580;2023-05-28T12:31:33;10;9;
64315;PMS5003;50652;51.482;-0.580;2023-05-28T12:34:00;10;10;
64315;PMS5003;50652;51.482;-0.580;2023-05-28T12:36:27;13;10;
64315;PMS5003;50652;51.482;-0.580;2023-05-28T12:38:55;11;10;
64315;PMS5003;50652;51.482;-0.580;2023-05-28T12:41:22;9;8;
64315;PMS5003;50652;51.482;-0.580;2023-05-28T12:43:48;10;10;
64315;PMS5003;50652;51.482;-0.580;2023-05-28T12:46:15;11;10;
64315;PMS5003;50652;51.482;-0.580;2023-05-28T12:48:42;8;8;
64315;PMS5003;50652;51.482;-0.580;2023-05-28T12:51:09;11;10;
64315;PMS5003;50652;51.482;-0.580;2023-05-28T12:53:36;11;9;
64315;PMS5003;50652;51.482;-0.580;2023-05-28T12:56:03;16;12;
64315;PMS5003;50652;51.482;-0.580;2023-05-28T12:58:30;9;9;
64315;PMS5003;50652;51.482;-0.580;2023-05-28T13:00:58;16;11;
64315;PMS5003;50652;51.482;-0.580;2023-05-28T13:03:25;11;11;
64315;PMS5003;50652;51.482;-0.580;2023-05-28T13:05:52;10;10;
64315;PMS5003;50652;51.482;-0.580;2023-05-28T13:08:19;10;10;
64315;PMS5003;50652;51.482;-0.580;2023-05-28T13:10:46;6;6;
64315;PMS5003;50652;51.482;-0.580;2023-05-28T13:13:13;9;9;
64315;PMS5003;50652;51.482;-0.580;2023-05-28T13:15:40;11;11;
64315;PMS5003;50652;51.482;-0.580;2023-05-28T13:18:07;8;8;
64315;PMS5003;50652;51.482;-0.580;2023-05-28T13:20:35;11;10;
64315;PMS5003;50652;51.482;-0.580;2023-05-28T13:23:01;7;6;
64315;PMS5003;50652;51.482;-0.580;2023-05-28T13:25:28;8;8;
64315;PMS5003;50652;51.482;-0.580;2023-05-28T13:27:55;11;10;
64315;PMS5003;50652;51.482;-0.580;2023-05-28T13:30:22;9;7;
64315;PMS5003;50652;51.482;-0.580;2023-05-28T13:32:49;11;10;
64315;PMS5003;50652;51.482;-0.580;2023-05-28T13:35:16;10;7;
64315;PMS5003;50652;51.482;-0.580;2023-05-28T13:37:43;11;10;
64315;PMS5003;50652;51.482;-0.580;2023-05-28T13:40:10;9;9;
64315;PMS5003;50652;51.482;-0.580;2023-05-28T13:42:37;6;6;
64315;PMS5003;50652;51.482;-0.580;2023-05-28T13:45:05;10;9;
64315;PMS5003;50652;51.482;-0.580;2023-05-28T13:47:33;9;8;
64315;PMS5003;50652;51.482;-0.580;2023-05-28T13:50:01;8;7;
64315;PMS5003;50652;51.482;-0.580;2023-05-28T13:52:29;8;7;
64315;PMS5003;50652;51.482;-0.580;2023-05-28T13:54:56;11;10;
64315;PMS5003;50652;51.482;-0.580;2023-05-28T13:57:23;9;9;
64315;PMS5003;50652;51.482;-0.580;2023-05-28T13:59:50;8;7;
64315;PMS5003;50652;51.482;-0.580;2023-05-28T14:02:17;11;8;
64315;PMS5003;50652;51.482;-0.580;2023-05-28T14:04:44;9;8;
64315;PMS5003;50652;51.482;-0.580;2023-05-28T14:07:11;8;8;
64315;PMS5003;50652;51.482;-0.580;2023-05-28T14:09:38;9;8;
64315;PMS5003;50652;51.482;-0.580;2023-05-28T14:12:05;9;7;
64315;PMS5003;50652;51.482;-0.580;2023-05-28T14:14:32;7;6;
64315;PMS5003;50652;51.482;-0.580;2023-05-28T14:16:59;7;7;
64315;PMS5003;50652;51.482;-0.580;2023-05-28T14:19:26;10;10;
64315;PMS5003;50652;51.482;-0.580;2023-05-28T14:21:53;9;7;
64315;PMS5003;50652;51.482;-0.580;2023-05-28T14:24:20;10;7;
64315;PMS5003;50652;51.482;-0.580;2023-05-28T14:26:47;9;7;
64315;PMS5003;50652;51.482;-0.580;2023-05-28T14:29:15;11;8;
64315;PMS5003;50652;51.482;-0.580;2023-05-28T14:31:42;9;7;
64315;PMS5003;50652;51.482;-0.580;2023-05-28T14:34:09;10;6;
64315;PMS5003;50652;51.482;-0.580;2023-05-28T14:36:36;8;6;
64315;PMS5003;50652;51.482;-0.580;2023-05-28T14:39:03;7;7;
64315;PMS5003;50652;51.482;-0.580;2023-05-28T14:41:30;10;9;
64315;PMS5003;50652;51.482;-0.580;2023-05-28T14:43:57;7;7;
64315;PMS5003;50652;51.482;-0.580;2023-05-28T14:46:24;10;8;
64315;PMS5003;50652;51.482;-0.580;2023-05-28T14:48:51;11;11;
64315;PMS5003;50652;51.482;-0.580;2023-05-28T14:51:19;11;10;
64315;PMS5003;50652;51.482;-0.580;2023-05-28T14:53:46;10;8;
64315;PMS5003;50652;51.482;-0.580;2023-05-28T14:56:13;8;8;
64315;PMS5003;50652;51.482;-0.580;2023-05-28T14:58:41;11;8;
64315;PMS5003;50652;51.482;-0.580;2023-05-28T15:01:08;7;7;
64315;PMS5003;50652;51.482;-0.580;2023-05-28T15:03:35;8;8;
64315;PMS5003;50652;51.482;-0.580;2023-05-28T15:06:03;10;8;
64315;PMS5003;50652;51.482;-0.580;2023-05-28T15:08:29;13;10;
64315;PMS5003;50652;51.482;-0.580;2023-05-28T15:10:56;5;5;
64315;PMS5003;50652;51.482;-0.580;2023-05-28T15:13:23;7;6;
64315;PMS5003;50652;51.482;-0.580;2023-05-28T15:15:51;8;7;
64315;PMS5003;50652;51.482;-0.580;2023-05-28T15:18:19;6;6;
64315;PMS5003;50652;51.482;-0.580;2023-05-28T15:20:45;9;8;
64315;PMS5003;50652;51.482;-0.580;2023-05-28T15:23:12;11;7;
64315;PMS5003;50652;51.482;-0.580;2023-05-28T15:25:40;11;10;
64315;PMS5003;50652;51.482;-0.580;2023-05-28T15:28:08;11;9;
64315;PMS5003;50652;51.482;-0.580;2023-05-28T15:30:36;7;7;
64315;PMS5003;50652;51.482;-0.580;2023-05-28T15:33:03;7;7;
64315;PMS5003;50652;51.482;-0.580;2023-05-28T15:35:31;8;7;
64315;PMS5003;50652;51.482;-0.580;2023-05-28T15:37:59;8;8;
64315;PMS5003;50652;51.482;-0.580;2023-05-28T15:40:26;9;8;
64315;PMS5003;50652;51.482;-0.580;2023-05-28T15:42:55;8;7;
64315;PMS5003;50652;51.482;-0.580;2023-05-28T15:45:24;7;7;
64315;PMS5003;50652;51.482;-0.580;2023-05-28T15:47:52;10;8;
64315;PMS5003;50652;51.482;-0.580;2023-05-28T15:50:19;7;5;
64315;PMS5003;50652;51.482;-0.580;2023-05-28T15:52:47;15;13;
64315;PMS5003;50652;51.482;-0.580;2023-05-28T15:55:15;23;17;
64315;PMS5003;50652;51.482;-0.580;2023-05-28T15:57:43;18;16;
64315;PMS5003;50652;51.482;-0.580;2023-05-28T16:00:11;9;9;
64315;PMS5003;50652;51.482;-0.580;2023-05-28T16:02:39;7;7;
64315;PMS5003;50652;51.482;-0.580;2023-05-28T16:05:10;13;11;
64315;PMS5003;50652;51.482;-0.580;2023-05-28T16:07:37;8;8;
64315;PMS5003;50652;51.482;-0.580;2023-05-28T16:10:05;9;9;
64315;PMS5003;50652;51.482;-0.580;2023-05-28T16:12:33;9;7;